createdAt,value
2022-11-29T00:01:42.713Z,24.45
2022-11-29T00:04:11.454Z,39.40
2022-11-29T00:06:40.940Z,40.55
2022-11-29T00:09:12.247Z,32.55
2022-11-29T00:12:00.437Z,37.20
2022-11-29T00:14:29.553Z,33.17
2022-11-29T00:17:01.988Z,25.58
2022-11-29T00:19:32.293Z,34.30
2022-11-29T00:22:01.151Z,34.60
2022-11-29T00:24:31.678Z,32.30
2022-11-29T00:27:00.604Z,33.72
2022-11-29T00:29:29.981Z,23.50
2022-11-29T00:31:59.749Z,26.50
2022-11-29T00:34:28.799Z,34.03
2022-11-29T00:36:57.410Z,54.20
2022-11-29T00:39:25.959Z,39.55
2022-11-29T00:41:54.817Z,31.73
2022-11-29T00:44:23.198Z,30.73
2022-11-29T00:46:51.606Z,33.60
2022-11-29T00:49:20.077Z,30.52
2022-11-29T00:51:48.501Z,32.85
2022-11-29T00:54:17.031Z,30.08
2022-11-29T00:56:45.442Z,28.73
2022-11-29T00:59:13.833Z,29.55
2022-11-29T01:01:42.295Z,60.53
2022-11-29T01:04:10.696Z,32.95
2022-11-29T01:06:39.220Z,34.95
2022-11-29T01:09:07.626Z,26.95
2022-11-29T01:11:36.067Z,28.73
2022-11-29T01:14:04.541Z,46.33
2022-11-29T01:16:33.755Z,29.70
2022-11-29T01:19:02.612Z,23.92
2022-11-29T01:21:30.970Z,31.52
2022-11-29T01:24:00.806Z,29.90
2022-11-29T01:26:31.177Z,35.10
2022-11-29T01:28:59.756Z,32.03
2022-11-29T01:31:31.341Z,26.55
2022-11-29T01:34:02.479Z,29.95
2022-11-29T01:36:31.573Z,26.80
2022-11-29T01:39:01.644Z,31.88
2022-11-29T01:41:32.454Z,47.35
2022-11-29T01:44:26.897Z,57.05
2022-11-29T01:46:56.739Z,33.13
2022-11-29T01:49:47.308Z,35.60
2022-11-29T01:52:19.200Z,32.58
2022-11-29T01:54:50.834Z,35.25
2022-11-29T01:57:20.286Z,30.90
2022-11-29T01:59:52.402Z,46.45
2022-11-29T02:04:53.143Z,25.63
2022-11-29T02:07:21.648Z,41.05
2022-11-29T02:09:50.024Z,36.50
2022-11-29T02:12:33.655Z,34.13
2022-11-29T02:15:24.472Z,44.92
2022-11-29T02:18:21.013Z,32.50
2022-11-29T02:21:02.413Z,36.33
2022-11-29T02:23:45.959Z,30.00
2022-11-29T02:26:33.109Z,40.83
2022-11-29T02:29:31.683Z,31.80
2022-11-29T02:32:21.795Z,41.20
2022-11-29T02:34:56.900Z,35.85
2022-11-29T02:37:56.797Z,56.92
2022-11-29T02:40:39.272Z,40.55
2022-11-29T02:43:16.777Z,34.38
2022-11-29T02:46:03.974Z,33.65
2022-11-29T02:48:52.391Z,62.53
2022-11-29T02:51:32.666Z,57.45
2022-11-29T02:54:16.763Z,64.75
2022-11-29T02:56:58.889Z,46.97
2022-11-29T03:00:03.802Z,69.63
2022-11-29T03:02:54.093Z,51.83
2022-11-29T03:05:47.058Z,68.38
2022-11-29T03:08:34.042Z,75.85
2022-11-29T03:11:22.011Z,76.28
2022-11-29T03:14:06.517Z,134.95
2022-11-29T03:16:54.584Z,122.03
2022-11-29T03:19:53.399Z,65.03
2022-11-29T03:22:40.734Z,83.38
2022-11-29T03:25:17.702Z,79.55
2022-11-29T03:27:50.207Z,149.52
2022-11-29T03:30:19.938Z,139.27
2022-11-29T03:33:07.952Z,283.50
2022-11-29T03:36:14.877Z,138.90
2022-11-29T03:38:46.414Z,154.48
2022-11-29T03:41:23.490Z,83.15
2022-11-29T03:44:12.058Z,194.38
2022-11-29T03:46:54.609Z,243.93
2022-11-29T03:49:31.008Z,133.38
2022-11-29T03:52:35.721Z,132.13
2022-11-29T03:55:30.904Z,266.48
2022-11-29T03:58:20.294Z,196.60
2022-11-29T04:00:48.643Z,449.27
2022-11-29T04:03:20.031Z,165.10
2022-11-29T04:06:10.820Z,341.45
2022-11-29T04:09:00.262Z,238.85
2022-11-29T04:11:59.839Z,328.27
2022-11-29T04:14:54.565Z,126.68
2022-11-29T04:17:41.439Z,122.55
2022-11-29T04:20:29.601Z,123.65
2022-11-29T04:23:22.986Z,253.45
2022-11-29T04:26:12.946Z,184.27
2022-11-29T04:29:03.600Z,154.82
2022-11-29T04:32:00.009Z,341.92
2022-11-29T04:34:53.788Z,148.55
2022-11-29T04:37:47.045Z,154.20
2022-11-29T04:40:24.441Z,183.30
2022-11-29T04:43:11.334Z,181.05
2022-11-29T04:45:59.371Z,241.38
2022-11-29T04:48:37.396Z,161.85
2022-11-29T04:51:30.209Z,125.47
2022-11-29T04:54:15.482Z,193.15
2022-11-29T04:56:50.772Z,129.95
2022-11-29T04:59:40.726Z,110.10
2022-11-29T05:02:37.376Z,176.45
2022-11-29T05:05:41.092Z,265.60
2022-11-29T05:08:27.145Z,279.73
2022-11-29T05:11:34.300Z,233.48
2022-11-29T05:14:51.083Z,249.10
2022-11-29T05:17:38.326Z,111.97
2022-11-29T05:20:31.723Z,300.25
2022-11-29T05:23:34.360Z,227.05
2022-11-29T05:26:15.872Z,254.57
2022-11-29T05:28:57.476Z,356.70
2022-11-29T05:31:58.637Z,356.73
2022-11-29T05:34:54.620Z,331.30
2022-11-29T05:37:44.943Z,385.00
2022-11-29T05:40:13.289Z,311.95
2022-11-29T05:42:59.479Z,361.15
2022-11-29T05:45:35.462Z,245.27
2022-11-29T05:48:25.329Z,186.80
2022-11-29T05:51:37.098Z,198.00
2022-11-29T05:54:08.383Z,263.30
2022-11-29T05:56:48.342Z,190.93
2022-11-29T05:59:24.565Z,245.25
2022-11-29T06:02:09.522Z,219.63
2022-11-29T06:04:57.242Z,312.42
2022-11-29T06:07:58.967Z,243.90
2022-11-29T06:10:39.878Z,256.05
2022-11-29T06:13:26.528Z,202.73
2022-11-29T06:16:22.939Z,178.45
2022-11-29T06:19:19.267Z,256.30
2022-11-29T06:22:24.316Z,151.57
2022-11-29T06:25:11.650Z,242.10
2022-11-29T06:28:18.192Z,239.10
2022-11-29T06:31:03.379Z,122.40
2022-11-29T06:33:44.501Z,191.25
2022-11-29T06:36:25.145Z,218.60
2022-11-29T06:38:53.842Z,144.40
2022-11-29T06:41:24.190Z,230.15
2022-11-29T06:43:53.032Z,130.07
2022-11-29T06:46:47.915Z,102.43
2022-11-29T06:49:41.120Z,144.13
2022-11-29T06:52:23.019Z,97.78
2022-11-29T06:55:06.154Z,135.88
2022-11-29T06:57:46.820Z,127.28
2022-11-29T07:00:20.356Z,144.27
2022-11-29T07:02:51.668Z,105.55
2022-11-29T07:05:34.609Z,109.67
2022-11-29T07:08:06.724Z,117.72
2022-11-29T07:10:37.665Z,63.47
2022-11-29T07:13:06.681Z,84.35
2022-11-29T07:15:37.464Z,62.90
2022-11-29T07:18:51.055Z,73.05
2022-11-29T07:21:44.212Z,62.70
2022-11-29T07:24:27.950Z,71.65
2022-11-29T07:27:05.403Z,49.92
2022-11-29T07:29:57.166Z,64.20
2022-11-29T07:33:08.109Z,50.33
2022-11-29T07:35:55.362Z,45.75
2022-11-29T07:38:55.887Z,47.72
2022-11-29T07:41:36.597Z,53.45
2022-11-29T07:44:30.203Z,48.75
2022-11-29T07:46:58.767Z,43.60
2022-11-29T07:49:27.326Z,43.15
2022-11-29T07:51:56.014Z,38.63
2022-11-29T07:54:24.689Z,53.78
2022-11-29T07:56:53.122Z,56.80
2022-11-29T07:59:21.762Z,43.30
2022-11-29T08:01:50.211Z,55.47
2022-11-29T08:04:18.693Z,48.35
2022-11-29T08:06:47.170Z,45.78
2022-11-29T08:09:15.710Z,61.38
2022-11-29T08:11:44.853Z,50.15
2022-11-29T08:14:13.243Z,45.63
2022-11-29T08:16:41.867Z,45.05
2022-11-29T08:19:10.392Z,49.65
2022-11-29T08:21:38.845Z,63.15
2022-11-29T08:24:07.376Z,39.42
2022-11-29T08:26:35.847Z,35.80
2022-11-29T08:29:04.369Z,41.78
2022-11-29T08:31:32.937Z,42.92
2022-11-29T08:34:01.826Z,47.55
2022-11-29T08:36:30.491Z,41.33
2022-11-29T08:39:05.997Z,50.65
2022-11-29T08:41:37.493Z,36.97
2022-11-29T08:44:06.449Z,45.47
2022-11-29T08:46:53.846Z,42.35
2022-11-29T08:49:22.295Z,49.08
2022-11-29T08:52:13.474Z,48.17
2022-11-29T08:54:41.962Z,36.83
2022-11-29T08:57:38.396Z,41.45
2022-11-29T08:59:59.596Z,46.88
2022-11-29T09:02:28.121Z,75.13
2022-11-29T09:04:56.847Z,48.35
2022-11-29T09:07:25.320Z,61.90
2022-11-29T09:09:53.814Z,67.47
2022-11-29T09:12:22.354Z,74.18
2022-11-29T09:14:50.746Z,73.95
2022-11-29T09:17:19.124Z,67.18
2022-11-29T09:19:47.557Z,60.80
2022-11-29T09:22:15.974Z,82.70
2022-11-29T09:24:46.474Z,60.05
2022-11-29T09:27:15.154Z,101.53
2022-11-29T09:29:43.639Z,83.03
2022-11-29T09:32:12.022Z,125.75
2022-11-29T09:34:42.189Z,72.45
2022-11-29T09:37:10.837Z,86.93
2022-11-29T09:39:41.536Z,68.72
2022-11-29T09:42:23.908Z,148.40
2022-11-29T09:48:16.159Z,155.98
2022-11-29T09:51:23.470Z,180.25
2022-11-29T09:54:10.579Z,124.13
2022-11-29T09:56:46.974Z,93.60
2022-11-29T09:59:32.750Z,74.78
2022-11-29T10:02:15.871Z,77.72
2022-11-29T10:04:53.496Z,106.10
2022-11-29T10:07:30.814Z,156.63
2022-11-29T10:10:33.377Z,86.65
2022-11-29T10:13:23.814Z,73.60
2022-11-29T10:16:04.360Z,103.68
2022-11-29T10:18:44.030Z,83.68
2022-11-29T10:21:25.549Z,50.78
2022-11-29T10:24:01.435Z,93.47
2022-11-29T10:26:34.984Z,117.57
2022-11-29T10:29:04.980Z,58.15
2022-11-29T10:31:37.762Z,73.18
2022-11-29T10:34:32.521Z,58.67
2022-11-29T10:37:02.695Z,47.40
2022-11-29T10:39:49.003Z,58.58
2022-11-29T10:42:41.877Z,69.00
2022-11-29T10:45:30.708Z,47.63
2022-11-29T10:48:04.991Z,59.88
2022-11-29T10:50:36.224Z,47.92
2022-11-29T10:53:14.331Z,50.97
2022-11-29T10:56:02.485Z,48.92
2022-11-29T10:58:31.834Z,47.03
2022-11-29T11:01:02.267Z,47.83
2022-11-29T11:03:38.510Z,49.55
2022-11-29T11:06:19.358Z,54.50
2022-11-29T11:08:52.048Z,59.10
2022-11-29T11:11:39.372Z,48.47
2022-11-29T11:14:27.364Z,44.92
2022-11-29T11:16:56.315Z,58.63
2022-11-29T11:19:32.090Z,73.45
2022-11-29T11:22:03.946Z,62.85
2022-11-29T11:24:37.479Z,66.50
2022-11-29T11:27:06.132Z,50.10
2022-11-29T11:29:39.342Z,47.63
2022-11-29T11:32:17.033Z,48.45
2022-11-29T11:34:57.215Z,47.63
2022-11-29T11:37:28.726Z,46.30
2022-11-29T11:40:00.225Z,56.03
2022-11-29T11:42:40.367Z,48.40
2022-11-29T11:45:22.912Z,60.63
2022-11-29T11:47:53.890Z,54.67
2022-11-29T11:50:25.289Z,51.00
2022-11-29T11:52:57.371Z,41.55
2022-11-29T11:55:33.482Z,74.25
2022-11-29T11:58:09.774Z,50.38
2022-11-29T12:01:08.121Z,49.60
2022-11-29T12:03:48.435Z,52.42
2022-11-29T12:06:37.336Z,62.17
2022-11-29T12:09:46.299Z,39.60
2022-11-29T12:12:26.049Z,28.65
2022-11-29T12:15:21.914Z,38.92
2022-11-29T12:18:24.635Z,45.10
2022-11-29T12:23:35.336Z,36.47
2022-11-29T12:26:55.222Z,43.17
2022-11-29T12:29:16.627Z,54.42
2022-11-29T12:32:00.314Z,53.85
2022-11-29T12:35:07.215Z,59.35
2022-11-29T12:37:48.356Z,50.55
2022-11-29T12:40:54.497Z,49.30
2022-11-29T12:44:07.960Z,60.05
2022-11-29T12:46:38.155Z,58.17
2022-11-29T12:49:15.742Z,54.88
2022-11-29T12:51:54.253Z,58.85
2022-11-29T12:54:56.936Z,61.47
2022-11-29T13:00:21.035Z,79.32
2022-11-29T13:03:14.539Z,47.90
2022-11-29T13:06:37.372Z,74.20
2022-11-29T13:09:24.418Z,76.18
2022-11-29T13:11:58.360Z,75.63
2022-11-29T13:14:44.510Z,67.72
2022-11-29T13:17:48.628Z,68.75
2022-11-29T13:20:39.231Z,67.13
2022-11-29T13:24:07.492Z,61.42
2022-11-29T13:26:30.536Z,67.07
2022-11-29T13:29:01.136Z,57.13
2022-11-29T13:31:30.443Z,56.13
2022-11-29T13:34:01.877Z,50.95
2022-11-29T13:36:59.796Z,53.13
2022-11-29T13:39:46.509Z,42.53
2022-11-29T13:42:36.779Z,69.38
2022-11-29T13:45:26.977Z,73.47
2022-11-29T13:48:00.635Z,65.43
2022-11-29T13:50:35.092Z,47.88
2022-11-29T13:53:11.679Z,62.88
2022-11-29T13:55:49.549Z,67.20
2022-11-29T13:58:18.527Z,62.92
2022-11-29T14:00:49.783Z,71.35
2022-11-29T14:03:24.139Z,49.63
2022-11-29T14:06:22.198Z,62.05
2022-11-29T14:09:18.984Z,66.38
2022-11-29T14:11:51.228Z,68.57
2022-11-29T14:14:25.943Z,54.47
2022-11-29T14:17:01.229Z,84.45
2022-11-29T14:19:34.531Z,78.72
2022-11-29T14:22:03.011Z,58.78
2022-11-29T14:24:35.356Z,72.07
2022-11-29T14:27:06.959Z,79.78
2022-11-29T14:29:47.330Z,76.03
2022-11-29T14:32:46.209Z,65.97
2022-11-29T14:35:32.347Z,62.38
2022-11-29T14:38:23.082Z,77.47
2022-11-29T14:41:06.432Z,73.90
2022-11-29T14:43:41.587Z,62.85
2022-11-29T14:46:16.129Z,61.78
2022-11-29T14:48:58.811Z,51.55
2022-11-29T14:51:35.999Z,57.05
2022-11-29T14:54:15.414Z,61.33
2022-11-29T14:56:45.489Z,53.45
2022-11-29T14:59:42.568Z,55.83
2022-11-29T15:02:26.923Z,52.95
2022-11-29T15:04:57.390Z,61.67
2022-11-29T15:07:31.868Z,57.38
2022-11-29T15:10:04.812Z,60.10
2022-11-29T15:12:37.489Z,61.15
2022-11-29T15:15:18.081Z,74.75
2022-11-29T15:18:18.912Z,56.80
2022-11-29T15:21:03.729Z,67.68
2022-11-29T15:23:41.773Z,65.45
2022-11-29T15:26:28.338Z,70.95
2022-11-29T15:29:18.205Z,70.97
2022-11-29T15:31:52.273Z,65.45
2022-11-29T15:34:43.467Z,83.20
2022-11-29T15:37:23.082Z,69.78
2022-11-29T15:40:05.863Z,62.90
2022-11-29T15:42:44.693Z,73.80
2022-11-29T15:45:38.199Z,83.40
2022-11-29T15:48:20.764Z,68.72
2022-11-29T15:51:15.649Z,53.45
2022-11-29T15:54:12.057Z,69.70
2022-11-29T15:57:04.089Z,57.78
2022-11-29T16:00:10.771Z,62.50
2022-11-29T16:02:48.073Z,58.55
2022-11-29T16:05:22.439Z,58.42
2022-11-29T16:07:54.637Z,55.05
2022-11-29T16:10:33.573Z,51.25
2022-11-29T16:13:31.378Z,90.75
2022-11-29T16:16:11.836Z,68.53
2022-11-29T16:18:42.391Z,51.25
2022-11-29T16:21:29.442Z,58.65
2022-11-29T16:23:58.891Z,51.92
2022-11-29T16:26:34.418Z,50.63
2022-11-29T16:29:03.514Z,71.60
2022-11-29T16:31:35.074Z,52.97
2022-11-29T16:34:09.179Z,65.65
2022-11-29T16:36:37.661Z,60.22
2022-11-29T16:39:16.646Z,68.30
2022-11-29T16:42:02.550Z,59.53
2022-11-29T16:44:40.032Z,55.28
2022-11-29T16:47:29.860Z,57.15
2022-11-29T16:50:19.087Z,52.50
2022-11-29T16:52:52.018Z,56.38
2022-11-29T16:55:23.865Z,50.83
2022-11-29T16:57:52.488Z,55.40
2022-11-29T17:00:30.537Z,65.43
2022-11-29T17:02:59.579Z,48.08
2022-11-29T17:05:28.205Z,44.30
2022-11-29T17:07:56.801Z,42.80
2022-11-29T17:10:25.724Z,55.05
2022-11-29T17:12:54.194Z,58.95
2022-11-29T17:15:22.610Z,55.53
2022-11-29T17:17:50.934Z,57.35
2022-11-29T17:20:19.360Z,56.97
2022-11-29T17:22:47.796Z,72.65
2022-11-29T17:25:16.269Z,64.65
2022-11-29T17:27:44.748Z,46.72
2022-11-29T17:30:13.646Z,45.03
2022-11-29T17:32:42.070Z,53.97
2022-11-29T17:35:10.524Z,44.63
2022-11-29T17:37:38.832Z,50.80
2022-11-29T17:40:08.075Z,53.38
2022-11-29T17:42:36.514Z,55.17
2022-11-29T17:45:05.235Z,55.33
2022-11-29T17:47:33.594Z,57.20
2022-11-29T17:50:02.068Z,55.85
2022-11-29T17:52:31.387Z,67.00
2022-11-29T17:54:59.863Z,52.83
2022-11-29T17:57:28.307Z,64.57
2022-11-29T17:59:56.691Z,55.05
2022-11-29T18:02:25.188Z,67.60
2022-11-29T18:04:53.654Z,81.88
2022-11-29T18:07:22.126Z,63.72
2022-11-29T18:09:51.012Z,61.03
2022-11-29T18:12:20.115Z,60.20
2022-11-29T18:14:50.727Z,56.42
2022-11-29T18:17:19.161Z,55.50
2022-11-29T18:19:47.827Z,48.85
2022-11-29T18:22:16.563Z,53.58
2022-11-29T18:24:44.995Z,47.80
2022-11-29T18:27:13.482Z,50.63
2022-11-29T18:29:41.848Z,48.63
2022-11-29T18:32:10.278Z,48.10
2022-11-29T18:34:38.723Z,52.58
2022-11-29T18:37:12.321Z,52.55
2022-11-29T18:39:44.339Z,54.58
2022-11-29T18:42:13.006Z,51.63
2022-11-29T18:44:41.425Z,46.65
2022-11-29T18:47:09.760Z,62.63
2022-11-29T18:49:38.187Z,55.92
2022-11-29T18:52:06.692Z,49.85
2022-11-29T18:54:35.229Z,60.42
2022-11-29T18:57:03.616Z,56.10
2022-11-29T18:59:32.023Z,60.33
2022-11-29T19:02:00.399Z,61.55
2022-11-29T19:04:28.790Z,52.90
2022-11-29T19:06:57.270Z,66.18
2022-11-29T19:09:25.811Z,54.67
2022-11-29T19:11:54.150Z,54.92
2022-11-29T19:14:22.507Z,63.17
2022-11-29T19:16:50.970Z,66.90
2022-11-29T19:19:19.392Z,65.88
2022-11-29T19:21:48.059Z,62.08
2022-11-29T19:24:18.403Z,75.95
2022-11-29T19:26:48.065Z,67.05
2022-11-29T19:29:17.252Z,56.67
2022-11-29T19:31:45.779Z,65.38
2022-11-29T19:34:14.219Z,78.68
2022-11-29T19:36:43.861Z,66.15
2022-11-29T19:39:15.209Z,59.13
2022-11-29T19:41:46.675Z,72.57
2022-11-29T19:44:15.181Z,62.35
2022-11-29T19:46:46.981Z,61.38
2022-11-29T19:49:15.463Z,57.88
2022-11-29T19:51:43.838Z,54.97
2022-11-29T19:54:12.328Z,80.75
2022-11-29T19:56:40.791Z,65.38
2022-11-29T19:59:09.275Z,67.85
2022-11-29T20:01:41.409Z,95.28
2022-11-29T20:04:13.116Z,66.78
2022-11-29T20:06:41.673Z,88.40
2022-11-29T20:09:11.702Z,64.05
2022-11-29T20:11:40.447Z,108.80
2022-11-29T20:14:11.374Z,74.32
2022-11-29T20:16:40.444Z,94.63
2022-11-29T20:19:14.330Z,82.97
2022-11-29T20:21:45.406Z,84.97
2022-11-29T20:24:15.329Z,91.68
2022-11-29T20:26:46.181Z,85.18
2022-11-29T20:29:15.846Z,88.38
2022-11-29T20:31:50.058Z,90.22
2022-11-29T20:34:20.335Z,95.28
2022-11-29T20:37:07.619Z,89.00
2022-11-29T20:39:49.804Z,75.07
2022-11-29T20:45:06.368Z,77.93
2022-11-29T20:47:37.711Z,83.43
2022-11-29T20:50:06.998Z,114.70
2022-11-29T20:52:48.481Z,129.18
2022-11-29T20:55:17.142Z,90.93
2022-11-29T20:57:45.778Z,95.20
2022-11-29T21:00:15.879Z,140.20
2022-11-29T21:02:44.249Z,120.10
2022-11-29T21:05:12.780Z,100.50
2022-11-29T21:07:41.296Z,101.68
2022-11-29T21:10:10.174Z,99.40
2022-11-29T21:12:39.278Z,96.75
2022-11-29T21:15:10.472Z,125.95
2022-11-29T21:17:40.615Z,103.38
2022-11-29T21:20:18.059Z,103.68
2022-11-29T21:22:53.928Z,109.25
2022-11-29T21:25:31.600Z,114.30
2022-11-29T21:28:00.525Z,106.75
2022-11-29T21:30:29.152Z,108.22
2022-11-29T21:32:57.826Z,117.85
2022-11-29T21:35:26.280Z,116.03
2022-11-29T21:37:58.289Z,122.50
2022-11-29T21:40:27.296Z,119.95
2022-11-29T21:42:56.056Z,117.47
2022-11-29T21:45:24.497Z,94.13
2022-11-29T21:47:52.985Z,88.35
2022-11-29T21:50:21.417Z,125.13
2022-11-29T21:52:52.191Z,124.70
2022-11-29T21:55:20.553Z,100.07
2022-11-29T21:57:48.958Z,118.40
2022-11-29T22:00:17.770Z,107.15
2022-11-29T22:02:46.240Z,113.50
2022-11-29T22:05:14.805Z,99.72
2022-11-29T22:07:43.632Z,107.47
2022-11-29T22:10:13.668Z,114.47
2022-11-29T22:12:51.243Z,101.32
2022-11-29T22:15:24.498Z,115.88
2022-11-29T22:17:53.583Z,114.15
2022-11-29T22:20:22.487Z,114.57
2022-11-29T22:22:54.485Z,118.50
2022-11-29T22:25:25.691Z,110.05
2022-11-29T22:27:54.082Z,111.57
2022-11-29T22:30:22.501Z,100.38
2022-11-29T22:32:50.971Z,91.70
2022-11-29T22:35:19.330Z,99.22
2022-11-29T22:37:47.974Z,94.43
2022-11-29T22:40:16.941Z,81.88
2022-11-29T22:42:45.643Z,79.07
2022-11-29T22:45:14.186Z,98.97
2022-11-29T22:47:42.631Z,80.78
2022-11-29T22:50:11.339Z,92.93
2022-11-29T22:52:39.733Z,77.05
2022-11-29T22:55:08.521Z,90.50
2022-11-29T22:57:36.947Z,94.63
2022-11-29T23:00:06.110Z,79.22
2022-11-29T23:02:34.535Z,82.85
2022-11-29T23:05:02.953Z,109.55
2022-11-29T23:07:31.320Z,92.53
2022-11-29T23:09:59.667Z,107.95
2022-11-29T23:12:28.161Z,83.55
2022-11-29T23:14:57.129Z,76.97
2022-11-29T23:17:25.739Z,68.20
2022-11-29T23:19:54.128Z,89.43
2022-11-29T23:22:22.581Z,92.93
2022-11-29T23:24:51.022Z,79.43
2022-11-29T23:27:19.351Z,95.15
2022-11-29T23:29:47.695Z,85.40
2022-11-29T23:32:16.006Z,83.32
2022-11-29T23:34:44.673Z,79.78
2022-11-29T23:37:13.328Z,78.30
2022-11-29T23:39:41.745Z,79.85
2022-11-29T23:42:10.397Z,69.70
2022-11-29T23:44:38.740Z,70.18
2022-11-29T23:47:07.072Z,79.85
2022-11-29T23:49:35.684Z,79.35
2022-11-29T23:52:04.228Z,78.15
2022-11-29T23:54:32.653Z,61.15
2022-11-29T23:57:01.084Z,74.90
2022-11-29T23:59:29.481Z,78.43
